Time;durP1;ratioP1;P1;durP2;ratioP2;P2;SDS_P1;SDS_P2;PMS_P1;PMS_P2;Temp;Humidity;BMP_temperature;BMP_pressure;BME280_temperature;BME280_humidity;BME280_pressure;Samples;Min_cycle;Max_cycle;Signal;HPM_P1;HPM_P2
2021/10/14 00:00:46;;;;;;;7.30;3.67;;;8.90;87.60;;;;;;5032814;28;20256;-87
2021/10/14 00:03:12;;;;;;;4.87;3.80;;;9.00;87.40;;;;;;5034293;28;20282;-88
2021/10/14 00:05:37;;;;;;;4.00;3.70;;;9.00;87.60;;;;;;5025370;28;20250;-87
2021/10/14 00:08:03;;;;;;;4.77;3.33;;;9.10;87.30;;;;;;5009702;28;20212;-87
2021/10/14 00:10:30;;;;;;;3.60;3.30;;;9.00;86.90;;;;;;4997410;28;20193;-87
2021/10/14 00:12:59;;;;;;;3.80;3.50;;;9.00;87.00;;;;;;5008313;28;20588;-87
2021/10/14 00:15:25;;;;;;;3.83;3.47;;;8.90;86.50;;;;;;5010468;28;20214;-87
2021/10/14 00:17:51;;;;;;;3.90;3.50;;;8.90;87.10;;;;;;5010158;28;20201;-87
2021/10/14 00:20:17;;;;;;;3.87;3.57;;;8.90;87.30;;;;;;5011368;28;20236;-88
2021/10/14 00:22:42;;;;;;;3.53;3.20;;;8.90;87.50;;;;;;5008969;28;20364;-88
2021/10/14 00:25:09;;;;;;;4.20;3.80;;;9.00;87.30;;;;;;5010553;28;20274;-88
2021/10/14 00:27:35;;;;;;;4.00;3.70;;;9.00;86.90;;;;;;5009869;28;20682;-88
2021/10/14 00:30:02;;;;;;;4.00;3.70;;;9.00;87.00;;;;;;5009032;28;20218;-88
2021/10/14 00:32:28;;;;;;;3.67;3.37;;;9.00;87.10;;;;;;5010460;28;20927;-88
2021/10/14 00:34:53;;;;;;;3.70;3.40;;;9.00;87.30;;;;;;5008052;28;20186;-88
2021/10/14 00:37:19;;;;;;;4.00;3.60;;;9.00;87.30;;;;;;5009998;28;20255;-88
2021/10/14 00:39:44;;;;;;;3.77;3.47;;;9.00;87.40;;;;;;5009641;28;20793;-88
2021/10/14 00:42:12;;;;;;;4.30;3.90;;;9.00;87.40;;;;;;5002904;28;20210;-88
2021/10/14 00:44:54;;;;;;;4.07;3.77;;;8.90;87.10;;;;;;5010003;28;20194;-88
2021/10/14 00:47:23;;;;;;;6.53;4.03;;;8.90;87.60;;;;;;5008436;28;20308;-88
2021/10/14 00:49:50;;;;;;;4.67;3.20;;;8.80;87.30;;;;;;4990711;28;20269;-88
2021/10/14 00:52:16;;;;;;;4.50;2.97;;;8.40;87.40;;;;;;5008974;28;20224;-87
2021/10/14 00:54:44;;;;;;;3.50;3.10;;;8.10;89.20;;;;;;5009238;28;20246;-88
2021/10/14 00:57:11;;;;;;;3.83;3.00;;;7.90;90.50;;;;;;5007646;28;20197;-88
2021/10/14 00:59:38;;;;;;;3.70;3.30;;;7.80;91.80;;;;;;5009752;28;20232;-88
2021/10/14 01:02:04;;;;;;;3.53;3.10;;;7.90;91.80;;;;;;5010283;28;20472;-87
2021/10/14 01:04:30;;;;;;;3.37;3.10;;;7.80;91.90;;;;;;4993412;28;20194;-88
2021/10/14 01:06:56;;;;;;;3.57;3.00;;;8.10;91.80;;;;;;5012323;28;20581;-87
2021/10/14 01:09:22;;;;;;;3.80;3.40;;;8.20;91.20;;;;;;5012964;28;20190;-88
2021/10/14 01:11:48;;;;;;;3.93;3.27;;;8.40;91.00;;;;;;5025463;28;20198;-88
2021/10/14 01:14:14;;;;;;;4.10;3.43;;;8.50;90.70;;;;;;5025943;28;20185;-85
2021/10/14 01:16:41;;;;;;;4.00;3.40;;;8.50;89.60;;;;;;5036161;28;20197;-86
2021/10/14 01:19:08;;;;;;;3.60;3.30;;;8.60;88.90;;;;;;5023274;28;20670;-86
2021/10/14 01:21:35;;;;;;;3.70;3.30;;;8.60;88.10;;;;;;5018344;28;20194;-87
2021/10/14 01:24:01;;;;;;;3.60;3.30;;;8.70;88.60;;;;;;5018469;28;20198;-86
2021/10/14 01:26:27;;;;;;;5.07;4.07;;;8.80;88.30;;;;;;5019007;28;20231;-86
2021/10/14 01:28:54;;;;;;;3.57;3.10;;;8.80;88.10;;;;;;5015516;28;20208;-86
2021/10/14 01:31:22;;;;;;;3.30;3.10;;;8.80;88.10;;;;;;5019201;28;20197;-86
2021/10/14 01:33:48;;;;;;;4.00;3.13;;;8.80;87.70;;;;;;5014513;28;20293;-87
2021/10/14 01:36:14;;;;;;;6.47;3.90;;;8.80;87.20;;;;;;5009779;28;20284;-87
2021/10/14 01:38:39;;;;;;;3.00;2.80;;;8.80;86.80;;;;;;4992913;28;20202;-87
2021/10/14 01:41:05;;;;;;;3.30;3.00;;;8.80;87.20;;;;;;5010267;28;20259;-89
2021/10/14 01:43:31;;;;;;;5.43;3.13;;;8.80;86.90;;;;;;5002779;28;20218;-89
2021/10/14 01:45:57;;;;;;;5.43;3.50;;;8.80;86.80;;;;;;5002030;28;20267;-89
2021/10/14 01:48:23;;;;;;;3.57;3.27;;;8.80;85.90;;;;;;5010172;28;20205;-89
2021/10/14 01:50:49;;;;;;;5.10;3.63;;;8.70;86.50;;;;;;5010430;28;20237;-89
2021/10/14 01:53:14;;;;;;;3.60;3.30;;;8.70;86.10;;;;;;5009844;28;20213;-89
2021/10/14 01:55:40;;;;;;;3.87;3.13;;;8.60;86.50;;;;;;5008055;28;20197;-89
2021/10/14 01:58:06;;;;;;;3.57;3.27;;;8.60;86.50;;;;;;5009841;28;20593;-89
2021/10/14 02:00:32;;;;;;;3.60;3.23;;;8.60;86.30;;;;;;5007921;28;20829;-89
2021/10/14 02:02:58;;;;;;;3.40;3.10;;;8.60;86.30;;;;;;5002796;28;20210;-89
2021/10/14 02:05:24;;;;;;;3.40;3.10;;;8.70;86.30;;;;;;4993071;28;20182;-89
2021/10/14 02:07:49;;;;;;;5.33;3.33;;;8.60;86.10;;;;;;5008996;28;20228;-89
2021/10/14 02:10:15;;;;;;;4.43;2.93;;;8.60;86.70;;;;;;5009516;28;20190;-89
2021/10/14 02:12:41;;;;;;;3.93;3.37;;;8.60;86.40;;;;;;5010068;28;20237;-89
2021/10/14 02:15:07;;;;;;;4.13;3.23;;;8.50;85.50;;;;;;5010343;28;20237;-89
2021/10/14 02:17:33;;;;;;;3.57;3.27;;;8.40;86.10;;;;;;5006009;28;20209;-88
2021/10/14 02:19:58;;;;;;;4.07;3.10;;;8.40;85.70;;;;;;4980716;28;20302;-89
2021/10/14 02:22:24;;;;;;;3.47;3.13;;;8.20;86.20;;;;;;5011650;28;20209;-88
2021/10/14 02:24:50;;;;;;;4.07;3.30;;;8.20;86.70;;;;;;5009673;28;20390;-89
2021/10/14 02:27:15;;;;;;;3.40;3.10;;;8.20;86.60;;;;;;5007407;28;20217;-89
2021/10/14 02:29:41;;;;;;;4.40;3.20;;;8.10;86.90;;;;;;5011968;28;20185;-89
2021/10/14 02:32:06;;;;;;;3.53;3.23;;;8.20;86.70;;;;;;5013995;28;20292;-89
2021/10/14 02:34:32;;;;;;;3.70;3.33;;;8.10;86.60;;;;;;5017354;28;20190;-89
2021/10/14 02:36:58;;;;;;;3.60;3.23;;;8.10;87.10;;;;;;5009141;28;20194;-89
2021/10/14 02:39:23;;;;;;;4.00;3.60;;;8.10;86.40;;;;;;5010762;28;20197;-89
2021/10/14 02:41:49;;;;;;;3.80;3.37;;;8.00;87.10;;;;;;5011315;28;20193;-89
2021/10/14 02:44:15;;;;;;;3.30;3.00;;;8.00;86.70;;;;;;5012728;28;20189;-86
2021/10/14 02:46:40;;;;;;;5.77;5.37;;;8.10;87.20;;;;;;5012554;28;20372;-89
2021/10/14 02:49:06;;;;;;;4.87;4.10;;;8.00;86.20;;;;;;5013398;28;20194;-89
2021/10/14 02:51:32;;;;;;;5.57;3.53;;;8.00;86.30;;;;;;5012356;28;20910;-89
2021/10/14 02:53:58;;;;;;;5.67;5.13;;;7.90;87.00;;;;;;5014660;28;20182;-89
2021/10/14 02:56:24;;;;;;;4.97;3.30;;;7.80;87.00;;;;;;5013535;28;20260;-89
2021/10/14 02:58:49;;;;;;;11.07;10.23;;;7.90;87.30;;;;;;5015304;28;20261;-89
2021/10/14 03:01:15;;;;;;;7.60;7.10;;;7.80;87.50;;;;;;5028325;28;20205;-87
2021/10/14 03:03:41;;;;;;;6.20;5.70;;;7.80;87.60;;;;;;5012894;28;20213;-89
2021/10/14 03:06:06;;;;;;;5.30;3.40;;;7.80;88.20;;;;;;5013121;28;20194;-89
2021/10/14 03:08:32;;;;;;;4.60;3.80;;;7.70;87.10;;;;;;5010510;28;20248;-89
2021/10/14 03:10:58;;;;;;;4.33;2.93;;;7.60;87.50;;;;;;5016419;28;20197;-89
2021/10/14 03:13:23;;;;;;;4.50;3.47;;;7.50;87.00;;;;;;5013704;28;20283;-89
2021/10/14 03:15:49;;;;;;;3.40;3.10;;;7.50;89.40;;;;;;5012986;28;20257;-89
2021/10/14 03:18:15;;;;;;;5.27;3.77;;;7.40;89.10;;;;;;5014479;28;20185;-87
2021/10/14 03:20:40;;;;;;;5.53;3.30;;;7.30;89.30;;;;;;5012465;28;20193;-87
2021/10/14 03:23:06;;;;;;;3.93;2.97;;;7.30;88.90;;;;;;5012853;28;20947;-89
2021/10/14 03:25:32;;;;;;;3.50;3.20;;;7.30;90.00;;;;;;5012543;28;20232;-89
2021/10/14 03:27:57;;;;;;;3.87;3.20;;;7.50;89.50;;;;;;5014792;28;20221;-89
2021/10/14 03:30:23;;;;;;;4.00;3.63;;;7.50;88.70;;;;;;5014822;28;20190;-90
2021/10/14 03:32:49;;;;;;;3.43;3.07;;;7.50;89.10;;;;;;5015134;28;20213;-89
2021/10/14 03:35:15;;;;;;;3.80;3.10;;;7.60;88.50;;;;;;5014308;28;20190;-89
2021/10/14 03:37:40;;;;;;;2.93;2.67;;;7.50;87.10;;;;;;5016629;28;20213;-86
2021/10/14 03:40:07;;;;;;;3.30;2.87;;;7.40;88.70;;;;;;5022118;28;20221;-89
2021/10/14 03:42:32;;;;;;;3.90;3.00;;;7.50;89.30;;;;;;5014003;28;20210;-90
2021/10/14 03:44:58;;;;;;;3.37;3.00;;;7.50;88.80;;;;;;5013969;28;20194;-90
2021/10/14 03:47:24;;;;;;;3.43;2.90;;;7.50;88.40;;;;;;5013193;28;20216;-90
2021/10/14 03:49:50;;;;;;;4.43;3.90;;;7.60;88.20;;;;;;4997150;28;20539;-88
2021/10/14 03:52:16;;;;;;;4.53;4.10;;;7.60;87.70;;;;;;5012730;28;20224;-88
2021/10/14 03:54:42;;;;;;;3.53;3.23;;;7.50;87.90;;;;;;5027596;28;20185;-87
2021/10/14 03:57:08;;;;;;;3.60;2.90;;;7.50;88.70;;;;;;5014135;28;20268;-90
2021/10/14 03:59:33;;;;;;;3.63;3.27;;;7.70;88.50;;;;;;5004297;28;20243;-86
2021/10/14 04:01:59;;;;;;;3.37;3.07;;;7.70;87.80;;;;;;5003976;28;22067;-86
2021/10/14 04:04:25;;;;;;;3.50;3.13;;;7.70;87.70;;;;;;5014822;28;20185;-86
2021/10/14 04:06:51;;;;;;;5.00;3.57;;;7.80;88.00;;;;;;5014219;28;20594;-86
2021/10/14 04:09:17;;;;;;;4.03;3.03;;;7.80;87.20;;;;;;5012359;28;20191;-89
2021/10/14 04:11:42;;;;;;;3.77;3.50;;;7.70;87.60;;;;;;5004597;28;20654;-87
2021/10/14 04:14:08;;;;;;;4.00;3.60;;;7.70;87.70;;;;;;5008714;28;20191;-86
2021/10/14 04:16:34;;;;;;;4.77;3.40;;;7.70;87.50;;;;;;5012419;28;20594;-89
2021/10/14 04:18:59;;;;;;;4.30;3.53;;;7.60;87.60;;;;;;5012428;28;20193;-89
2021/10/14 04:21:26;;;;;;;3.83;3.50;;;7.60;87.30;;;;;;5010331;28;20248;-88
2021/10/14 04:23:52;;;;;;;4.70;4.30;;;7.60;87.70;;;;;;5010081;28;20221;-89
2021/10/14 04:26:17;;;;;;;3.30;3.10;;;7.50;87.60;;;;;;5024691;28;20193;-86
2021/10/14 04:28:43;;;;;;;4.60;3.87;;;7.50;87.80;;;;;;5009270;28;20189;-87
2021/10/14 04:31:09;;;;;;;4.17;3.67;;;7.40;87.80;;;;;;5009288;28;20189;-87
2021/10/14 04:33:35;;;;;;;4.80;3.73;;;7.30;87.70;;;;;;5011346;28;20202;-87
2021/10/14 04:36:02;;;;;;;4.47;3.80;;;7.10;89.00;;;;;;4990867;28;20534;-89
2021/10/14 04:38:28;;;;;;;5.07;3.90;;;7.10;89.40;;;;;;5010203;28;20273;-89
2021/10/14 04:40:54;;;;;;;6.07;4.30;;;7.00;89.60;;;;;;5008482;28;20208;-89
2021/10/14 04:43:20;;;;;;;4.27;3.87;;;6.90;90.00;;;;;;5009663;28;20645;-89
2021/10/14 04:45:46;;;;;;;4.63;4.20;;;6.90;90.20;;;;;;5009845;28;20273;-88
2021/10/14 04:48:11;;;;;;;4.33;3.90;;;6.80;90.50;;;;;;5006331;28;20340;-89
2021/10/14 04:50:37;;;;;;;4.43;3.97;;;6.70;90.90;;;;;;5011809;28;20182;-89
2021/10/14 04:53:03;;;;;;;5.43;4.40;;;6.40;92.40;;;;;;5015447;28;20209;-90
2021/10/14 04:55:28;;;;;;;8.50;4.67;;;6.40;93.10;;;;;;5010768;28;20276;-89
2021/10/14 04:58:25;;;;;;;4.50;4.10;;;6.30;93.80;;;;;;5015746;28;20201;-89
2021/10/14 05:00:51;;;;;;;7.03;4.67;;;6.40;94.40;;;;;;5116405;22;20222;-84
2021/10/14 05:03:18;;;;;;;7.00;5.13;;;6.60;93.30;;;;;;5102479;28;20241;-85
2021/10/14 05:05:44;;;;;;;7.53;4.30;;;6.60;92.40;;;;;;5079378;28;20274;-85
2021/10/14 05:08:10;;;;;;;4.80;4.40;;;6.70;92.30;;;;;;5097938;28;20276;-86
2021/10/14 05:10:35;;;;;;;4.30;3.90;;;6.80;91.30;;;;;;5089189;28;20214;-85
2021/10/14 05:13:01;;;;;;;4.33;3.80;;;6.80;90.50;;;;;;5055645;28;20180;-85
2021/10/14 05:15:40;;;;;;;4.97;4.47;;;6.70;90.50;;;;;;5070284;28;20282;-87
2021/10/14 05:18:06;;;;;;;5.33;3.93;;;6.70;90.50;;;;;;5093911;28;20184;-85
2021/10/14 05:20:32;;;;;;;4.30;3.90;;;6.60;91.00;;;;;;5083399;28;20223;-87
2021/10/14 05:22:58;;;;;;;4.97;4.47;;;6.60;91.70;;;;;;5090343;28;20179;-86
2021/10/14 05:25:24;;;;;;;6.13;5.30;;;6.50;92.20;;;;;;5072661;28;20220;-85
2021/10/14 05:27:50;;;;;;;4.87;4.37;;;6.40;92.30;;;;;;5080054;28;20239;-85
2021/10/14 05:30:17;;;;;;;5.67;4.93;;;6.40;93.30;;;;;;5053340;28;20564;-84
2021/10/14 05:32:43;;;;;;;5.20;4.70;;;6.40;92.70;;;;;;5073537;28;20207;-85
2021/10/14 05:35:09;;;;;;;5.00;4.33;;;6.40;92.90;;;;;;5076339;28;20214;-84
2021/10/14 05:37:35;;;;;;;5.30;4.80;;;6.50;92.00;;;;;;5060806;28;20183;-84
2021/10/14 05:40:03;;;;;;;5.73;4.83;;;6.50;91.50;;;;;;5061108;28;20744;-85
2021/10/14 05:42:29;;;;;;;5.67;4.80;;;6.50;91.20;;;;;;5058179;28;20215;-85
2021/10/14 05:44:55;;;;;;;5.50;5.00;;;6.40;91.70;;;;;;5052855;28;20199;-85
2021/10/14 05:47:21;;;;;;;6.13;4.70;;;6.30;92.30;;;;;;5077575;28;20215;-84
2021/10/14 05:49:46;;;;;;;5.33;4.80;;;6.10;93.40;;;;;;5072011;28;20286;-84
2021/10/14 05:52:12;;;;;;;5.77;4.97;;;6.10;94.30;;;;;;5056489;28;20241;-85
2021/10/14 05:54:38;;;;;;;7.10;4.57;;;6.00;94.00;;;;;;5060052;28;20215;-85
2021/10/14 05:57:03;;;;;;;5.93;5.10;;;6.00;95.30;;;;;;5075349;28;20874;-86
2021/10/14 05:59:29;;;;;;;5.70;5.10;;;6.00;95.20;;;;;;5043554;28;20721;-86
2021/10/14 06:01:55;;;;;;;8.07;5.57;;;5.90;95.80;;;;;;5075072;28;20202;-85
2021/10/14 06:04:21;;;;;;;7.13;5.23;;;5.90;95.90;;;;;;5076284;28;20196;-86
2021/10/14 06:06:46;;;;;;;6.17;5.40;;;6.00;95.60;;;;;;5075978;28;20219;-86
2021/10/14 06:09:12;;;;;;;8.57;5.97;;;5.90;95.90;;;;;;5080664;28;20229;-85
2021/10/14 06:11:38;;;;;;;6.67;5.27;;;5.80;95.80;;;;;;5060078;28;20191;-86
2021/10/14 06:14:04;;;;;;;6.60;5.63;;;5.80;96.90;;;;;;5059166;28;20180;-87
2021/10/14 06:16:30;;;;;;;5.67;5.17;;;5.80;96.30;;;;;;5060188;28;20184;-85
2021/10/14 06:18:55;;;;;;;7.53;5.70;;;5.80;96.80;;;;;;5081931;28;20688;-86
2021/10/14 06:21:21;;;;;;;7.43;5.60;;;5.70;97.10;;;;;;5049155;28;20245;-88
2021/10/14 06:23:47;;;;;;;9.53;5.83;;;5.70;97.50;;;;;;5060727;28;20223;-87
2021/10/14 06:26:12;;;;;;;6.63;5.57;;;5.70;98.00;;;;;;5062261;28;20195;-88
2021/10/14 06:28:38;;;;;;;10.07;6.50;;;5.70;97.70;;;;;;5059188;28;20192;-87
2021/10/14 06:31:04;;;;;;;10.73;7.20;;;5.80;97.70;;;;;;5076949;28;20465;-86
2021/10/14 06:33:30;;;;;;;10.93;5.93;;;5.90;97.50;;;;;;5068212;28;20188;-85
2021/10/14 06:35:55;;;;;;;6.63;5.63;;;5.80;97.80;;;;;;5064309;28;20229;-86
2021/10/14 06:38:21;;;;;;;6.63;5.93;;;5.90;97.80;;;;;;5064528;28;20192;-86
2021/10/14 06:40:47;;;;;;;6.20;5.60;;;5.90;97.90;;;;;;5070754;28;20751;-85
2021/10/14 06:43:13;;;;;;;6.83;6.03;;;5.90;97.80;;;;;;5048448;28;20203;-84
2021/10/14 06:45:38;;;;;;;7.17;6.47;;;6.00;98.40;;;;;;5051121;28;20523;-83
2021/10/14 06:48:05;;;;;;;8.37;6.80;;;6.00;97.90;;;;;;5062729;28;20211;-83
2021/10/14 06:50:31;;;;;;;6.97;6.37;;;6.00;98.10;;;;;;5068452;28;20238;-85
2021/10/14 06:52:57;;;;;;;8.10;7.00;;;5.90;99.00;;;;;;5063275;28;20222;-85
2021/10/14 06:55:23;;;;;;;8.77;7.70;;;5.90;99.30;;;;;;5049817;28;20184;-86
2021/10/14 06:57:48;;;;;;;8.90;7.00;;;5.90;99.70;;;;;;5077254;28;20288;-85
2021/10/14 07:00:14;;;;;;;8.37;7.03;;;5.80;99.90;;;;;;5084944;28;20227;-85
2021/10/14 07:02:40;;;;;;;7.77;6.87;;;5.90;99.90;;;;;;5085335;28;20177;-85
2021/10/14 07:05:06;;;;;;;6.70;5.93;;;5.90;99.90;;;;;;5079024;28;20220;-86
2021/10/14 07:07:32;;;;;;;6.77;6.07;;;6.00;99.90;;;;;;5071780;28;20211;-85
2021/10/14 07:09:57;;;;;;;6.90;6.30;;;6.10;99.90;;;;;;5053997;28;20211;-85
2021/10/14 07:12:28;;;;;;;7.13;6.53;;;6.20;99.90;;;;;;5068130;28;20558;-86
2021/10/14 07:14:56;;;;;;;8.10;6.43;;;6.30;99.80;;;;;;5067871;28;20208;-86
2021/10/14 07:17:22;;;;;;;7.27;6.17;;;6.50;98.80;;;;;;5072703;28;20200;-86
2021/10/14 07:19:48;;;;;;;7.70;6.37;;;6.50;99.00;;;;;;5066999;28;20690;-86
2021/10/14 07:22:13;;;;;;;7.47;6.60;;;6.40;98.80;;;;;;5069667;28;20188;-86
2021/10/14 07:24:39;;;;;;;7.83;7.03;;;6.50;99.20;;;;;;5070350;28;20187;-86
2021/10/14 07:27:07;;;;;;;7.60;6.70;;;6.50;98.80;;;;;;5067955;28;20582;-85
2021/10/14 07:29:34;;;;;;;10.37;7.37;;;6.50;99.30;;;;;;5067927;28;20673;-86
2021/10/14 07:32:00;;;;;;;10.00;6.87;;;6.50;99.70;;;;;;5049259;28;20200;-86
2021/10/14 07:34:25;;;;;;;7.00;6.30;;;6.50;99.90;;;;;;5069814;28;20183;-84
2021/10/14 07:36:51;;;;;;;7.17;6.03;;;6.70;98.90;;;;;;5048302;28;20203;-86
2021/10/14 07:39:18;;;;;;;6.67;6.07;;;6.80;98.20;;;;;;5091156;28;20261;-82
2021/10/14 07:41:46;;;;;;;6.93;6.27;;;6.80;98.10;;;;;;5075123;28;20637;-85
2021/10/14 07:44:16;;;;;;;8.90;6.73;;;6.90;98.10;;;;;;5085193;28;20207;-84
2021/10/14 07:46:43;;;;;;;7.47;6.67;;;7.00;97.30;;;;;;5064136;28;20208;-86
2021/10/14 07:49:09;;;;;;;7.27;6.20;;;6.90;98.80;;;;;;5063617;28;20193;-86
2021/10/14 07:51:37;;;;;;;17.67;13.80;;;7.00;98.50;;;;;;5062837;28;20234;-85
2021/10/14 07:54:04;;;;;;;7.97;6.30;;;7.00;97.60;;;;;;5047313;28;20205;-87
2021/10/14 07:56:31;;;;;;;8.23;6.30;;;7.10;99.00;;;;;;5064585;28;20226;-86
2021/10/14 07:58:56;;;;;;;7.70;6.30;;;7.20;99.00;;;;;;5070406;28;20282;-86
2021/10/14 08:01:22;;;;;;;7.77;6.07;;;7.20;98.60;;;;;;5066614;28;20273;-86
2021/10/14 08:03:48;;;;;;;7.27;6.10;;;7.40;97.00;;;;;;5068623;28;20195;-85
2021/10/14 08:06:15;;;;;;;7.87;6.60;;;7.40;98.90;;;;;;5067100;28;20188;-86
2021/10/14 08:08:40;;;;;;;7.20;6.47;;;7.50;98.80;;;;;;5049278;28;20199;-85
2021/10/14 08:11:07;;;;;;;7.30;6.20;;;7.70;98.10;;;;;;5047901;28;20259;-86
2021/10/14 08:13:32;;;;;;;7.63;6.10;;;7.80;97.80;;;;;;5066786;28;20230;-85
2021/10/14 08:15:59;;;;;;;9.43;6.63;;;7.80;97.50;;;;;;5067729;28;20204;-86
2021/10/14 08:18:25;;;;;;;8.70;6.33;;;7.70;97.70;;;;;;5065549;28;20246;-86
2021/10/14 08:20:53;;;;;;;8.13;6.40;;;7.80;98.00;;;;;;5066198;28;20208;-86
2021/10/14 08:23:20;;;;;;;7.37;6.00;;;7.80;98.50;;;;;;5071236;28;20187;-86
2021/10/14 08:25:47;;;;;;;7.17;6.47;;;7.70;98.10;;;;;;5067145;28;20191;-86
2021/10/14 08:28:13;;;;;;;7.50;6.77;;;7.70;98.60;;;;;;5070198;28;20203;-87
2021/10/14 08:30:40;;;;;;;8.30;7.47;;;7.70;99.30;;;;;;5070378;28;20211;-87
2021/10/14 08:33:05;;;;;;;9.93;7.27;;;8.00;98.10;;;;;;5064287;28;20188;-87
2021/10/14 08:35:35;;;;;;;8.37;7.17;;;8.10;96.60;;;;;;5067518;28;20214;-87
2021/10/14 08:38:03;;;;;;;8.60;7.70;;;8.10;97.60;;;;;;5070064;28;20577;-85
2021/10/14 08:40:29;;;;;;;10.23;8.30;;;8.30;96.40;;;;;;5062892;28;20215;-85
2021/10/14 08:43:00;;;;;;;8.00;7.23;;;8.40;96.10;;;;;;5068341;28;20196;-85
2021/10/14 08:45:27;;;;;;;12.20;7.53;;;8.50;96.20;;;;;;5066206;28;20679;-85
2021/10/14 08:47:52;;;;;;;10.53;7.80;;;8.70;95.20;;;;;;5065804;28;20211;-85
2021/10/14 08:50:18;;;;;;;8.43;7.63;;;9.00;94.20;;;;;;5063959;28;20218;-85
2021/10/14 08:52:44;;;;;;;10.03;7.77;;;8.80;92.50;;;;;;5064834;28;20187;-85
2021/10/14 08:55:10;;;;;;;8.73;7.33;;;8.90;91.80;;;;;;5066835;28;20223;-86
2021/10/14 08:57:35;;;;;;;9.10;6.97;;;9.10;91.50;;;;;;5068264;28;20203;-85
2021/10/14 09:00:02;;;;;;;7.83;7.03;;;9.20;90.60;;;;;;5069705;28;20577;-85
2021/10/14 09:02:29;;;;;;;9.27;7.23;;;9.20;90.60;;;;;;5073435;28;20373;-86
2021/10/14 09:04:58;;;;;;;7.33;6.63;;;9.40;88.90;;;;;;5074785;28;20209;-85
2021/10/14 09:07:30;;;;;;;7.50;6.73;;;9.50;91.20;;;;;;5065509;28;20246;-85
2021/10/14 09:09:58;;;;;;;7.90;7.00;;;9.70;88.50;;;;;;5066917;28;20690;-85
2021/10/14 09:12:24;;;;;;;8.83;6.87;;;9.80;89.00;;;;;;5068619;28;20245;-86
2021/10/14 09:15:11;;;;;;;7.67;6.97;;;9.80;89.80;;;;;;5049800;28;20192;-84
2021/10/14 09:17:37;;;;;;;8.37;7.43;;;9.80;89.30;;;;;;5069756;28;20653;-85
2021/10/14 09:20:21;;;;;;;7.10;6.33;;;9.80;89.80;;;;;;5058088;28;20330;-84
2021/10/14 09:22:57;;;;;;;8.20;6.70;;;9.90;88.60;;;;;;5059259;28;20207;-86
2021/10/14 09:25:31;;;;;;;8.53;6.83;;;9.90;90.20;;;;;;5065294;28;20663;-86
2021/10/14 09:28:23;;;;;;;7.57;6.37;;;10.10;89.40;;;;;;5063947;28;20226;-86
2021/10/14 09:30:50;;;;;;;7.47;6.37;;;10.30;86.80;;;;;;5055344;28;20208;-87
2021/10/14 09:33:42;;;;;;;8.70;6.53;;;10.40;86.50;;;;;;5063576;28;20186;-87
2021/10/14 09:36:15;;;;;;;7.43;6.40;;;10.40;86.10;;;;;;5067983;28;20196;-87
2021/10/14 09:38:45;;;;;;;8.60;6.73;;;10.40;86.10;;;;;;5067928;28;20308;-88
2021/10/14 09:41:13;;;;;;;7.10;6.40;;;10.40;85.60;;;;;;5063943;28;20215;-87
2021/10/14 09:43:39;;;;;;;7.17;6.47;;;10.50;85.00;;;;;;5067312;28;20211;-87
2021/10/14 09:46:05;;;;;;;11.50;6.60;;;10.50;85.30;;;;;;5072688;28;20731;-87
2021/10/14 09:48:31;;;;;;;8.90;6.50;;;10.60;85.10;;;;;;5065934;28;20220;-87
2021/10/14 09:50:57;;;;;;;8.17;7.37;;;10.60;86.00;;;;;;5071171;28;20242;-88
2021/10/14 09:53:25;;;;;;;6.80;6.10;;;10.60;85.60;;;;;;5081215;28;20188;-87
2021/10/14 09:55:52;;;;;;;9.53;6.73;;;10.80;85.30;;;;;;5066568;28;20187;-86
2021/10/14 09:58:19;;;;;;;10.97;7.27;;;10.60;86.30;;;;;;5060034;28;20160;-85
2021/10/14 10:00:46;;;;;;;7.73;6.43;;;10.70;86.20;;;;;;5092655;28;20219;-85
2021/10/14 10:03:23;;;;;;;8.40;6.90;;;11.00;85.70;;;;;;5085965;28;20187;-85
2021/10/14 10:05:54;;;;;;;9.13;6.70;;;11.20;83.60;;;;;;5081317;28;20198;-85
2021/10/14 10:08:29;;;;;;;8.03;6.93;;;11.20;83.80;;;;;;5076476;28;20219;-87
2021/10/14 10:10:59;;;;;;;8.47;6.10;;;11.30;84.20;;;;;;5059327;28;20215;-86
2021/10/14 10:13:27;;;;;;;7.30;5.93;;;11.40;84.40;;;;;;5085570;28;20193;-87
2021/10/14 10:15:55;;;;;;;8.27;7.47;;;11.50;84.00;;;;;;5065738;28;20200;-85
2021/10/14 10:18:27;;;;;;;6.80;6.10;;;11.70;83.10;;;;;;5066220;28;20186;-86
2021/10/14 10:21:02;;;;;;;7.13;5.73;;;12.00;81.20;;;;;;5083414;28;20533;-87
2021/10/14 10:23:47;;;;;;;7.47;6.10;;;11.80;81.70;;;;;;5068187;28;20191;-86
2021/10/14 10:26:35;;;;;;;7.97;6.30;;;11.70;82.70;;;;;;5073420;28;20725;-87
2021/10/14 10:29:23;;;;;;;12.57;6.83;;;12.00;81.60;;;;;;5069015;28;20185;-87
2021/10/14 10:31:51;;;;;;;10.73;5.90;;;12.50;81.60;;;;;;5067111;28;20214;-87
2021/10/14 10:37:23;;;;;;;7.73;6.00;;;13.50;76.20;;;;;;5076018;28;20195;-86
2021/10/14 10:39:50;;;;;;;7.17;5.83;;;13.70;75.70;;;;;;5087705;28;20212;-85
2021/10/14 10:42:35;;;;;;;7.50;5.93;;;14.00;73.30;;;;;;5074629;28;20206;-85
2021/10/14 10:45:16;;;;;;;8.83;5.90;;;14.10;74.50;;;;;;5077289;28;20214;-87
2021/10/14 10:47:45;;;;;;;5.97;5.47;;;14.40;70.60;;;;;;5068275;28;20213;-87
2021/10/14 10:50:23;;;;;;;6.13;5.53;;;14.40;71.30;;;;;;5069740;28;20216;-87
2021/10/14 10:53:01;;;;;;;7.67;6.07;;;14.40;70.50;;;;;;5071632;28;20192;-86
2021/10/14 10:55:27;;;;;;;7.30;5.30;;;14.10;72.00;;;;;;5075137;28;20213;-85
2021/10/14 10:57:55;;;;;;;9.07;6.13;;;13.90;73.20;;;;;;5077967;28;20641;-86
2021/10/14 11:00:22;;;;;;;5.40;4.90;;;14.00;73.60;;;;;;5078884;28;20621;-86
2021/10/14 11:03:20;;;;;;;7.77;5.50;;;14.50;69.30;;;;;;5078131;28;20187;-87
2021/10/14 11:05:59;;;;;;;5.53;5.07;;;14.90;67.70;;;;;;5056156;28;20216;-86
2021/10/14 11:08:32;;;;;;;5.20;4.70;;;15.30;66.10;;;;;;5072349;28;20629;-85
2021/10/14 11:11:09;;;;;;;5.80;5.20;;;15.50;67.20;;;;;;5046663;28;20674;-85
2021/10/14 11:13:38;;;;;;;5.50;4.43;;;15.30;65.60;;;;;;5063852;28;20191;-86
2021/10/14 11:16:12;;;;;;;7.07;4.73;;;15.10;67.70;;;;;;5053411;28;20218;-85
2021/10/14 11:18:44;;;;;;;6.47;4.13;;;14.80;68.50;;;;;;5056192;28;20186;-86
2021/10/14 11:21:12;;;;;;;5.37;4.23;;;15.20;63.70;;;;;;5039277;28;20219;-86
2021/10/14 11:23:40;;;;;;;5.90;4.50;;;15.20;67.40;;;;;;5052083;28;20187;-86
2021/10/14 11:26:34;;;;;;;5.20;4.70;;;15.30;68.90;;;;;;5070247;28;20197;-86
2021/10/14 11:29:17;;;;;;;5.23;4.80;;;15.50;67.00;;;;;;5074094;28;20197;-86
2021/10/14 11:31:43;;;;;;;5.10;4.53;;;15.30;66.90;;;;;;5071081;28;20184;-86
2021/10/14 11:34:18;;;;;;;6.77;4.50;;;15.50;66.20;;;;;;5070001;28;20546;-86
2021/10/14 11:36:51;;;;;;;6.17;4.43;;;15.70;63.90;;;;;;5071229;28;20183;-86
2021/10/14 11:39:19;;;;;;;7.30;4.77;;;15.70;64.80;;;;;;5067387;28;20549;-84
2021/10/14 11:41:51;;;;;;;6.07;4.33;;;16.00;62.90;;;;;;5061677;28;20226;-87
2021/10/14 11:44:17;;;;;;;6.13;4.90;;;16.10;63.30;;;;;;5067275;28;20216;-85
2021/10/14 11:46:46;;;;;;;4.70;4.20;;;16.40;61.80;;;;;;5066753;28;20224;-86
2021/10/14 11:49:11;;;;;;;4.90;4.10;;;16.50;60.40;;;;;;5042742;28;20204;-85
2021/10/14 11:51:38;;;;;;;6.50;3.77;;;16.90;58.60;;;;;;5065564;28;20231;-87
2021/10/14 11:54:10;;;;;;;7.60;4.00;;;17.10;60.70;;;;;;5058458;28;20203;-84
2021/10/14 11:56:46;;;;;;;4.83;3.43;;;16.60;60.40;;;;;;5059126;28;20187;-85
2021/10/14 11:59:13;;;;;;;4.23;3.50;;;16.70;59.20;;;;;;5059095;28;20181;-85
2021/10/14 12:02:05;;;;;;;3.93;3.17;;;16.80;57.50;;;;;;5064408;28;20247;-86
2021/10/14 12:04:40;;;;;;;5.70;3.23;;;16.80;58.10;;;;;;5068029;28;20193;-86
2021/10/14 12:07:06;;;;;;;4.27;2.90;;;16.60;57.80;;;;;;5069293;28;20252;-87
2021/10/14 12:09:32;;;;;;;3.77;3.07;;;16.20;58.30;;;;;;5069408;28;20619;-86
2021/10/14 12:11:59;;;;;;;3.07;2.77;;;16.10;57.60;;;;;;5075580;28;20222;-85
2021/10/14 12:14:27;;;;;;;4.07;2.67;;;16.30;58.60;;;;;;5058800;28;20180;-85
2021/10/14 12:17:24;;;;;;;3.37;3.03;;;16.80;56.60;;;;;;5069730;28;20180;-85
2021/10/14 12:19:51;;;;;;;4.17;2.97;;;17.30;54.80;;;;;;5061081;28;20224;-84
2021/10/14 12:22:26;;;;;;;6.03;3.40;;;17.50;55.10;;;;;;5084861;28;20218;-84
2021/10/14 12:25:04;;;;;;;4.90;4.00;;;17.60;54.90;;;;;;5064386;28;20180;-84
2021/10/14 12:27:46;;;;;;;5.43;3.47;;;17.80;54.70;;;;;;5081613;28;20588;-86
2021/10/14 12:30:34;;;;;;;4.57;3.07;;;17.60;54.20;;;;;;5066542;28;20746;-86
2021/10/14 12:33:12;;;;;;;3.80;3.43;;;17.30;57.70;;;;;;5066513;28;20211;-86
2021/10/14 12:35:50;;;;;;;4.90;3.10;;;17.40;56.20;;;;;;5064312;28;20645;-87
2021/10/14 12:38:17;;;;;;;6.93;3.23;;;17.30;56.00;;;;;;5063605;28;20221;-86
2021/10/14 12:41:10;;;;;;;5.03;3.53;;;17.20;57.10;;;;;;5055963;28;20255;-86
2021/10/14 12:43:49;;;;;;;4.18;3.83;;;17.60;56.80;;;;;;5067778;28;20187;-87
2021/10/14 12:46:24;;;;;;;5.75;3.67;;;18.10;53.20;;;;;;5073367;28;20196;-86
2021/10/14 12:48:56;;;;;;;4.47;3.10;;;17.90;54.00;;;;;;5071292;28;20203;-85
2021/10/14 12:51:24;;;;;;;3.80;3.33;;;18.20;51.70;;;;;;5076311;28;20231;-87
2021/10/14 12:53:59;;;;;;;6.07;3.67;;;18.20;52.40;;;;;;5070804;28;20252;-87
2021/10/14 12:56:39;;;;;;;5.47;3.85;;;18.10;52.90;;;;;;5063770;28;20296;-86
2021/10/14 12:59:06;;;;;;;4.13;3.72;;;18.60;50.50;;;;;;5061851;28;20645;-87
2021/10/14 13:01:34;;;;;;;4.30;3.90;;;18.70;51.60;;;;;;5066797;28;20206;-86